Time;durP1;ratioP1;P1;durP2;ratioP2;P2;SDS_P1;SDS_P2;PMS_P1;PMS_P2;Temp;Humidity;BMP_temperature;BMP_pressure;BME280_temperature;BME280_humidity;BME280_pressure;Samples;Min_cycle;Max_cycle;Signal;HPM_P1;HPM_P2
2024/03/11 00:00:17;;;;;;;5.80;1.70;;;;;;;1.25;45.14;101476.70;105213;1256;60539;-61
2024/03/11 00:02:46;;;;;;;3.50;1.20;;;;;;;1.25;45.29;101479.14;105256;1254;60859;-59
2024/03/11 00:05:15;;;;;;;3.50;1.10;;;;;;;1.22;45.39;101476.27;105430;1262;66707;-60
2024/03/11 00:07:45;;;;;;;3.90;1.20;;;;;;;1.20;45.33;101477.67;105196;1260;60436;-61
2024/03/11 00:10:13;;;;;;;1.90;0.70;;;;;;;1.18;45.47;101477.39;105261;1257;73525;-62
2024/03/11 00:12:44;;;;;;;5.30;2.00;;;;;;;1.16;45.48;101475.21;105222;1257;60552;-60
2024/03/11 00:15:12;;;;;;;13.70;1.90;;;;;;;1.13;45.56;101478.38;105329;1254;60444;-60
2024/03/11 00:17:42;;;;;;;3.40;1.00;;;;;;;1.10;45.62;101482.07;105083;1262;63790;-60
2024/03/11 00:20:10;;;;;;;7.70;2.50;;;;;;;1.09;45.50;101488.67;105301;1255;61602;-60
2024/03/11 00:22:38;;;;;;;3.40;1.30;;;;;;;1.07;45.67;101491.83;105063;1259;62473;-60
2024/03/11 00:25:06;;;;;;;4.60;0.80;;;;;;;1.05;45.58;101494.63;105191;1254;60759;-59
2024/03/11 00:27:37;;;;;;;4.50;1.30;;;;;;;1.04;45.58;101498.63;105361;1254;60368;-59
2024/03/11 00:30:08;;;;;;;3.80;1.00;;;;;;;1.03;45.71;101500.21;105158;1254;63901;-60
2024/03/11 00:32:44;;;;;;;4.20;1.20;;;;;;;1.01;45.80;101504.39;106221;1254;61371;-60
2024/03/11 00:35:14;;;;;;;3.50;1.10;;;;;;;0.99;45.96;101503.23;105143;1257;63779;-60
2024/03/11 00:37:43;;;;;;;3.60;1.00;;;;;;;0.98;46.43;101508.95;105140;1254;64061;-59
2024/03/11 00:40:11;;;;;;;4.60;1.20;;;;;;;0.97;46.53;101514.69;105074;1254;60505;-59
2024/03/11 00:42:39;;;;;;;3.20;1.00;;;;;;;0.95;46.32;101515.77;105231;1254;63649;-61
2024/03/11 00:45:09;;;;;;;2.20;0.60;;;;;;;0.95;46.21;101526.12;106095;1254;70489;-58
2024/03/11 00:47:39;;;;;;;2.80;1.20;;;;;;;0.92;46.17;101528.77;105179;1259;63960;-60
2024/03/11 00:50:10;;;;;;;2.90;0.70;;;;;;;0.90;46.12;101531.41;105350;1254;60493;-61
2024/03/11 00:52:42;;;;;;;3.60;1.00;;;;;;;0.87;46.07;101534.56;106164;1258;60457;-61
2024/03/11 00:55:11;;;;;;;4.80;1.30;;;;;;;0.85;46.15;101540.33;105187;1258;64874;-60
2024/03/11 00:57:40;;;;;;;5.80;1.40;;;;;;;0.84;46.15;101543.81;105224;1261;62410;-60
2024/03/11 01:00:11;;;;;;;5.20;1.40;;;;;;;0.83;46.26;101544.35;105463;1257;72674;-59
2024/03/11 01:02:40;;;;;;;5.60;1.40;;;;;;;0.82;46.38;101542.11;105196;1256;61855;-59
2024/03/11 01:05:10;;;;;;;4.80;1.20;;;;;;;0.81;46.42;101543.68;105201;1254;60536;-59
2024/03/11 01:07:38;;;;;;;3.00;0.90;;;;;;;0.81;46.50;101543.00;105238;1259;63702;-60
2024/03/11 01:10:14;;;;;;;4.60;1.00;;;;;;;0.79;46.51;101538.71;105299;1259;60588;-60
2024/03/11 01:12:43;;;;;;;2.20;0.60;;;;;;;0.79;46.65;101535.27;106013;1259;62667;-60
2024/03/11 01:15:11;;;;;;;4.10;0.80;;;;;;;0.78;46.68;101539.95;105412;1259;61055;-59
2024/03/11 01:17:39;;;;;;;2.90;0.90;;;;;;;0.76;46.73;101542.60;105197;1260;60549;-64
2024/03/11 01:20:10;;;;;;;12.20;1.50;;;;;;;0.73;46.86;101545.76;105325;1255;64919;-63
2024/03/11 01:22:39;;;;;;;9.50;1.90;;;;;;;0.70;46.88;101548.23;105412;1255;61996;-61
2024/03/11 01:25:09;;;;;;;3.60;1.20;;;;;;;0.67;46.80;101549.52;105451;1254;62432;-59
2024/03/11 01:27:38;;;;;;;4.90;1.60;;;;;;;0.63;46.80;101548.72;105324;1259;60613;-63
2024/03/11 01:30:07;;;;;;;3.70;0.80;;;;;;;0.60;46.85;101546.02;105381;1253;60623;-66
2024/03/11 01:32:39;;;;;;;5.80;1.30;;;;;;;0.58;47.06;101549.34;105435;1256;72565;-62
2024/03/11 01:35:11;;;;;;;2.80;0.90;;;;;;;0.56;47.17;101553.86;105390;1260;60513;-63
2024/03/11 01:37:41;;;;;;;4.00;1.00;;;;;;;0.54;47.34;101557.18;105421;1257;62525;-61
2024/03/11 01:40:10;;;;;;;3.60;1.10;;;;;;;0.54;47.53;101558.05;106218;1259;60478;-61
2024/03/11 01:42:38;;;;;;;4.30;1.10;;;;;;;0.53;47.61;101563.77;105314;1262;60437;-62
2024/03/11 01:45:07;;;;;;;5.70;1.20;;;;;;;0.52;47.69;101569.48;105129;1255;64935;-66
2024/03/11 01:47:37;;;;;;;3.80;0.90;;;;;;;0.53;47.84;101576.19;106197;1257;67789;-67
2024/03/11 01:50:07;;;;;;;5.60;1.80;;;;;;;0.53;48.06;101579.30;105403;1259;62448;-66
2024/03/11 01:52:45;;;;;;;3.70;1.10;;;;;;;0.52;47.87;101577.95;105368;1261;60451;-66
2024/03/11 01:55:13;;;;;;;3.40;0.70;;;;;;;0.50;47.80;101578.50;105982;1254;60566;-67
2024/03/11 01:57:40;;;;;;;4.10;1.00;;;;;;;0.47;47.80;101580.98;105232;1260;74059;-67
2024/03/11 02:00:09;;;;;;;2.80;0.60;;;;;;;0.45;47.98;101584.30;105241;1259;69663;-65
2024/03/11 02:02:38;;;;;;;5.20;1.20;;;;;;;0.43;47.92;101583.29;105313;1257;71989;-65
2024/03/11 02:05:09;;;;;;;3.50;0.70;;;;;;;0.43;48.19;101588.83;105408;1254;60516;-62
2024/03/11 02:07:37;;;;;;;5.80;1.00;;;;;;;0.42;48.27;101587.98;105550;1259;60456;-62
2024/03/11 02:10:13;;;;;;;4.90;1.00;;;;;;;0.41;48.47;101590.08;105275;1255;72515;-64
2024/03/11 02:12:42;;;;;;;2.70;0.50;;;;;;;0.40;48.58;101589.41;105188;1261;60596;-63
2024/03/11 02:15:13;;;;;;;3.90;0.90;;;;;;;0.37;48.67;101588.08;105446;1260;62457;-65
2024/03/11 02:17:44;;;;;;;4.10;1.20;;;;;;;0.36;48.82;101588.44;105125;1259;60569;-66
2024/03/11 02:20:16;;;;;;;4.00;1.50;;;;;;;0.33;48.86;101593.66;105339;1260;60517;-62
2024/03/11 02:22:52;;;;;;;3.60;1.00;;;;;;;0.31;48.91;101595.75;105215;1254;63714;-61
2024/03/11 02:25:27;;;;;;;4.40;0.70;;;;;;;0.31;48.89;101598.87;105850;1260;61350;-61
2024/03/11 02:28:03;;;;;;;3.00;1.00;;;;;;;0.30;49.09;101594.94;105219;1257;62526;-61
2024/03/11 02:30:32;;;;;;;2.30;0.80;;;;;;;0.29;49.20;101597.88;105559;1254;60443;-63
2024/03/11 02:33:00;;;;;;;2.40;0.80;;;;;;;0.28;49.28;101604.10;105558;1262;60902;-63
2024/03/11 02:35:28;;;;;;;3.00;0.60;;;;;;;0.27;49.38;101602.92;105223;1255;73913;-62
2024/03/11 02:37:56;;;;;;;3.30;1.20;;;;;;;0.27;49.51;101604.65;105490;1260;68099;-63
2024/03/11 02:40:26;;;;;;;2.70;0.50;;;;;;;0.24;49.48;101603.48;105129;1260;72731;-61
2024/03/11 02:42:56;;;;;;;2.90;0.50;;;;;;;0.21;49.50;101600.95;105060;1257;60625;-62
2024/03/11 02:45:26;;;;;;;2.00;0.60;;;;;;;0.18;49.74;101606.17;105103;1255;60486;-61
2024/03/11 02:47:54;;;;;;;3.20;1.00;;;;;;;0.17;49.80;101607.23;105068;1260;63652;-64
2024/03/11 02:50:22;;;;;;;2.00;0.60;;;;;;;0.16;50.01;101609.50;105172;1260;68271;-63
2024/03/11 02:52:50;;;;;;;1.70;0.60;;;;;;;0.14;50.19;101609.35;105189;1261;71938;-63
2024/03/11 02:55:21;;;;;;;2.30;0.60;;;;;;;0.13;50.27;101612.30;105113;1257;60575;-64
2024/03/11 02:57:49;;;;;;;3.80;0.90;;;;;;;0.13;50.33;101615.06;105993;1260;60456;-64
2024/03/11 03:00:18;;;;;;;3.10;0.90;;;;;;;0.14;50.46;101616.77;105999;1260;73824;-64
2024/03/11 03:02:49;;;;;;;1.70;0.70;;;;;;;0.13;50.31;101616.98;105020;1260;70644;-67
2024/03/11 03:05:18;;;;;;;2.80;0.70;;;;;;;0.11;50.41;101619.76;105303;1260;63786;-66
2024/03/11 03:07:46;;;;;;;3.70;0.90;;;;;;;0.10;50.42;101614.77;105195;1255;61629;-66
2024/03/11 03:10:14;;;;;;;1.10;0.40;;;;;;;0.09;50.41;101617.90;105239;1262;60510;-67
2024/03/11 03:12:42;;;;;;;3.20;1.50;;;;;;;0.08;50.42;101614.46;105125;1254;72856;-66
2024/03/11 03:15:10;;;;;;;2.90;0.90;;;;;;;0.07;50.46;101617.75;106093;1259;61753;-65
2024/03/11 03:17:38;;;;;;;3.40;0.90;;;;;;;0.06;50.47;101618.29;106115;1261;71535;-61
2024/03/11 03:20:10;;;;;;;4.10;1.50;;;;;;;0.04;50.44;101618.33;105192;1262;60575;-64
2024/03/11 03:22:38;;;;;;;2.80;1.20;;;;;;;0.02;50.32;101618.19;105420;1260;60518;-63
2024/03/11 03:25:07;;;;;;;3.70;1.30;;;;;;;-0.00;50.37;101624.08;105239;1259;72528;-65
2024/03/11 03:27:35;;;;;;;4.60;1.60;;;;;;;-0.04;50.49;101623.45;105379;1262;69353;-63
2024/03/11 03:30:03;;;;;;;3.70;0.60;;;;;;;-0.08;50.58;101621.80;105439;1260;72836;-64
2024/03/11 03:32:31;;;;;;;4.40;0.80;;;;;;;-0.11;50.56;101626.67;105570;1255;60451;-63
2024/03/11 03:34:59;;;;;;;4.30;0.80;;;;;;;-0.14;50.63;101629.31;105679;1260;60453;-65
2024/03/11 03:37:27;;;;;;;3.70;1.40;;;;;;;-0.16;50.75;101629.85;105677;1254;64881;-63
2024/03/11 03:39:55;;;;;;;5.20;0.90;;;;;;;-0.20;50.80;101626.98;105318;1260;70785;-62
2024/03/11 03:42:23;;;;;;;2.90;0.50;;;;;;;-0.21;50.86;101628.55;105185;1258;72688;-63
2024/03/11 03:44:51;;;;;;;1.90;0.40;;;;;;;-0.14;50.83;101628.95;105856;1266;60749;-67
2024/03/11 03:47:19;;;;;;;3.20;0.80;;;;;;;-0.04;50.78;101631.73;105076;1253;60515;-66
2024/03/11 03:49:48;;;;;;;2.00;0.40;;;;;;;0.05;50.66;101635.56;105168;1255;72682;-63
2024/03/11 03:52:15;;;;;;;3.50;0.70;;;;;;;0.13;50.74;101637.15;105270;1259;72615;-63
2024/03/11 03:54:43;;;;;;;3.00;0.50;;;;;;;0.22;50.68;101639.60;105111;1257;72560;-63
2024/03/11 03:57:12;;;;;;;3.50;0.90;;;;;;;0.31;50.52;101642.73;105338;1260;60924;-64
2024/03/11 03:59:40;;;;;;;2.90;1.50;;;;;;;0.40;50.60;101642.41;105822;1254;60370;-63
2024/03/11 04:02:08;;;;;;;4.00;0.70;;;;;;;0.49;50.43;101635.50;105005;1260;72636;-62
2024/03/11 04:04:43;;;;;;;2.80;0.90;;;;;;;0.53;50.40;101636.11;104992;1260;69977;-63
2024/03/11 04:07:10;;;;;;;3.10;0.90;;;;;;;0.54;50.30;101636.97;105338;1270;63040;-66
2024/03/11 04:09:38;;;;;;;3.40;1.40;;;;;;;0.52;50.24;101637.01;105166;1260;61531;-65
2024/03/11 04:12:06;;;;;;;5.00;1.40;;;;;;;0.50;50.24;101637.90;105148;1255;60344;-62
2024/03/11 04:14:36;;;;;;;3.60;0.80;;;;;;;0.45;50.21;101637.64;105427;1255;63722;-62
2024/03/11 04:17:06;;;;;;;4.20;1.30;;;;;;;0.39;50.41;101643.27;105400;1260;69173;-66
2024/03/11 04:19:34;;;;;;;3.50;1.20;;;;;;;0.31;50.43;101645.13;105455;1260;72732;-63
2024/03/11 04:22:03;;;;;;;2.30;0.80;;;;;;;0.24;50.64;101644.39;105186;1260;61201;-63
2024/03/11 04:24:31;;;;;;;2.60;0.60;;;;;;;0.19;50.74;101648.46;105230;1263;60364;-63
2024/03/11 04:26:59;;;;;;;2.70;0.60;;;;;;;0.14;50.80;101645.59;105191;1260;73819;-64
2024/03/11 04:29:29;;;;;;;5.30;1.00;;;;;;;0.10;50.88;101646.88;105569;1260;70854;-64
2024/03/11 04:31:57;;;;;;;2.90;0.90;;;;;;;0.05;51.03;101647.64;105339;1260;71595;-67
2024/03/11 04:34:26;;;;;;;3.60;1.00;;;;;;;-0.00;51.25;101649.27;105618;1262;60492;-64
2024/03/11 04:36:54;;;;;;;5.00;1.50;;;;;;;-0.03;51.58;101653.62;105864;1254;61423;-66
2024/03/11 04:39:21;;;;;;;2.70;0.60;;;;;;;-0.04;51.70;101659.67;105092;1260;73854;-65
2024/03/11 04:41:49;;;;;;;2.40;0.70;;;;;;;-0.06;51.73;101660.56;105188;1254;69959;-66
2024/03/11 04:44:17;;;;;;;4.10;1.20;;;;;;;-0.07;51.86;101661.11;105139;1261;71364;-62
2024/03/11 04:46:45;;;;;;;4.00;1.30;;;;;;;-0.08;51.91;101667.00;105190;1261;60584;-63
2024/03/11 04:49:13;;;;;;;4.20;1.00;;;;;;;-0.08;52.12;101664.58;105157;1256;60539;-63
2024/03/11 04:51:40;;;;;;;3.20;0.70;;;;;;;-0.07;52.19;101665.42;106240;1260;72630;-67
2024/03/11 04:54:08;;;;;;;3.50;0.90;;;;;;;-0.06;52.16;101663.50;105162;1254;70562;-63
2024/03/11 04:56:36;;;;;;;5.90;1.50;;;;;;;-0.03;52.11;101663.98;105404;1261;71053;-61
2024/03/11 04:59:05;;;;;;;3.70;1.10;;;;;;;-0.02;52.16;101662.76;105341;1261;60494;-61
2024/03/11 05:01:32;;;;;;;2.80;1.00;;;;;;;0.00;52.18;101668.25;105530;1260;62894;-63
2024/03/11 05:04:00;;;;;;;5.90;2.00;;;;;;;0.02;52.23;101667.71;105068;1255;73908;-67
2024/03/11 05:06:30;;;;;;;7.20;1.20;;;;;;;0.03;52.29;101673.73;105145;1260;68501;-59
2024/03/11 05:08:58;;;;;;;4.50;1.50;;;;;;;0.04;52.31;101677.34;105121;1254;71061;-60
2024/03/11 05:11:26;;;;;;;4.70;1.30;;;;;;;0.04;52.29;101679.74;105414;1264;61634;-60
2024/03/11 05:13:54;;;;;;;4.50;1.50;;;;;;;0.08;52.29;101684.86;105691;1260;60652;-59
2024/03/11 05:16:24;;;;;;;3.10;1.00;;;;;;;0.11;52.34;101688.27;105634;1258;74012;-60
2024/03/11 05:18:51;;;;;;;5.90;1.10;;;;;;;0.13;52.30;101696.50;105010;1260;69026;-61
2024/03/11 05:21:19;;;;;;;5.00;1.50;;;;;;;0.16;52.22;101696.65;104947;1255;73105;-64
2024/03/11 05:23:47;;;;;;;6.40;1.20;;;;;;;0.19;52.06;101703.84;105701;1260;60571;-60
2024/03/11 05:26:15;;;;;;;5.50;1.60;;;;;;;0.22;52.05;101700.68;105685;1260;60364;-60
2024/03/11 05:28:44;;;;;;;6.20;2.00;;;;;;;0.27;52.08;101708.73;104897;1260;72823;-60
2024/03/11 05:31:12;;;;;;;6.10;1.90;;;;;;;0.30;52.02;101714.38;105020;1254;70171;-62
2024/03/11 05:33:40;;;;;;;4.90;1.40;;;;;;;0.32;51.97;101711.39;104999;1260;71404;-63
2024/03/11 05:36:08;;;;;;;6.40;1.40;;;;;;;0.34;51.95;101716.71;105348;1260;60418;-60
2024/03/11 05:38:36;;;;;;;5.70;2.10;;;;;;;0.37;51.90;101717.20;104896;1253;60328;-60
2024/03/11 05:41:03;;;;;;;4.70;1.20;;;;;;;0.41;51.95;101712.12;105053;1260;72555;-60
2024/03/11 05:43:31;;;;;;;6.70;2.80;;;;;;;0.45;51.88;101714.46;104912;1261;68041;-59
2024/03/11 05:45:59;;;;;;;5.00;1.30;;;;;;;0.48;51.69;101718.22;105077;1258;72414;-59
2024/03/11 05:48:27;;;;;;;4.50;1.40;;;;;;;0.51;51.52;101723.85;105388;1256;60414;-61
2024/03/11 05:51:01;;;;;;;5.70;1.50;;;;;;;0.55;51.25;101724.31;105080;1260;60442;-60
2024/03/11 05:53:30;;;;;;;4.20;1.80;;;;;;;0.58;51.09;101724.95;108892;1254;72566;-59
2024/03/11 05:55:58;;;;;;;6.40;1.60;;;;;;;0.62;50.96;101729.91;105172;1254;69832;-58
2024/03/11 05:58:26;;;;;;;3.00;1.50;;;;;;;0.66;50.69;101730.35;105534;1260;72181;-58
2024/03/11 06:00:56;;;;;;;3.70;1.20;;;;;;;0.72;50.50;101738.20;105901;1257;60613;-62
2024/03/11 06:03:24;;;;;;;4.40;1.30;;;;;;;0.78;50.15;101739.30;105634;1255;60360;-60
2024/03/11 06:05:51;;;;;;;4.10;1.60;;;;;;;0.82;49.66;101743.03;105119;1260;74199;-59
2024/03/11 06:08:21;;;;;;;3.80;1.20;;;;;;;0.86;49.31;101745.02;105683;1262;71367;-58
2024/03/11 06:10:55;;;;;;;4.60;1.70;;;;;;;0.90;49.12;101748.24;105852;1254;73318;-60
2024/03/11 06:13:23;;;;;;;3.80;1.00;;;;;;;0.95;48.94;101753.15;105127;1254;63160;-60
2024/03/11 06:15:50;;;;;;;6.90;1.90;;;;;;;1.02;48.78;101757.71;105281;1259;60354;-60
2024/03/11 06:18:18;;;;;;;5.30;1.50;;;;;;;1.08;48.61;101761.39;105120;1254;72635;-65
2024/03/11 06:20:46;;;;;;;3.30;0.90;;;;;;;1.16;48.52;101768.50;105109;1254;69433;-62
2024/03/11 06:23:15;;;;;;;5.00;1.00;;;;;;;1.22;47.92;101764.60;105155;1261;72702;-62
2024/03/11 06:25:47;;;;;;;3.90;1.20;;;;;;;1.28;47.57;101764.83;105124;1254;60338;-66
2024/03/11 06:28:16;;;;;;;3.30;1.00;;;;;;;1.33;47.47;101765.08;105816;1254;60626;-64
2024/03/11 06:30:47;;;;;;;3.00;0.70;;;;;;;1.38;47.30;101767.23;105388;1254;73811;-63
2024/03/11 06:33:16;;;;;;;3.90;0.90;;;;;;;1.43;47.12;101767.98;105141;1259;68747;-61
2024/03/11 06:35:47;;;;;;;4.40;1.30;;;;;;;1.49;46.81;101768.90;105238;1255;72685;-60
2024/03/11 06:38:17;;;;;;;3.00;0.90;;;;;;;1.56;46.70;101769.98;105944;1259;60585;-59
2024/03/11 06:40:48;;;;;;;4.60;1.80;;;;;;;1.62;46.13;101774.17;105287;1253;60620;-60
2024/03/11 06:43:19;;;;;;;4.80;0.90;;;;;;;1.67;45.74;101777.19;105158;1254;73798;-62
2024/03/11 06:45:47;;;;;;;5.10;1.70;;;;;;;1.72;45.44;101774.69;105165;1254;68932;-61
2024/03/11 06:48:15;;;;;;;3.00;0.70;;;;;;;1.76;45.22;101774.58;105013;1254;75306;-61
2024/03/11 06:50:43;;;;;;;4.50;1.20;;;;;;;1.79;44.91;101778.31;105265;1254;61121;-59
2024/03/11 06:53:10;;;;;;;6.70;1.80;;;;;;;1.82;44.65;101777.05;105187;1259;62189;-60
2024/03/11 06:55:39;;;;;;;3.40;0.90;;;;;;;1.84;44.52;101777.55;107838;1254;76298;-57
2024/03/11 06:58:08;;;;;;;4.40;1.60;;;;;;;1.86;44.33;101777.16;105157;1264;68255;-59
2024/03/11 07:00:36;;;;;;;4.40;1.40;;;;;;;1.89;44.09;101777.77;106289;1257;71384;-70
2024/03/11 07:03:05;;;;;;;4.20;1.40;;;;;;;1.92;44.01;101776.52;104905;1254;301991;-72
2024/03/11 07:07:25;;;;;;;4.30;1.30;;;;;;;1.74;44.51;101780.84;102122;1294;600417;-67
2024/03/11 07:09:53;;;;;;;4.20;1.50;;;;;;;2.07;43.53;101780.67;104692;1267;59155;-67
2024/03/11 07:12:21;;;;;;;4.40;1.10;;;;;;;2.13;43.32;101774.83;104167;1270;59964;-70
2024/03/11 07:14:48;;;;;;;4.20;1.30;;;;;;;2.16;43.21;101778.75;103998;1270;73003;-66
2024/03/11 07:17:16;;;;;;;4.40;1.40;;;;;;;2.21;42.97;101778.65;104169;1267;72554;-67
2024/03/11 07:19:44;;;;;;;3.10;1.30;;;;;;;2.25;42.81;101777.69;104161;1267;74981;-66
2024/03/11 07:22:12;;;;;;;3.50;1.40;;;;;;;2.28;42.59;101783.85;104157;1265;185013;-67
2024/03/11 07:24:40;;;;;;;4.60;1.90;;;;;;;2.31;42.51;101783.42;104431;1264;61036;-67
2024/03/11 07:27:08;;;;;;;4.80;1.20;;;;;;;2.35;42.49;101783.85;104695;1263;74037;-72
2024/03/11 07:29:36;;;;;;;3.70;1.10;;;;;;;2.39;42.36;101786.70;104970;1265;60405;-69
2024/03/11 07:32:06;;;;;;;5.30;1.40;;;;;;;2.46;42.53;101786.70;105557;1265;72661;-68
2024/03/11 07:34:34;;;;;;;5.10;1.90;;;;;;;2.54;42.34;101785.66;104667;1263;59375;-63
2024/03/11 07:37:06;;;;;;;4.10;1.10;;;;;;;2.63;41.90;101784.59;107221;1265;59298;-60
2024/03/11 07:39:36;;;;;;;3.80;1.10;;;;;;;2.70;41.73;101785.79;105491;1264;72058;-67
2024/03/11 07:42:05;;;;;;;3.70;1.10;;;;;;;2.77;41.72;101790.29;105596;1267;60118;-66
2024/03/11 07:44:35;;;;;;;4.20;1.20;;;;;;;2.85;41.31;101791.66;105579;1263;75286;-71
2024/03/11 07:47:02;;;;;;;5.00;1.40;;;;;;;2.90;41.09;101792.21;104984;1268;59675;-72
2024/03/11 07:49:30;;;;;;;3.90;1.20;;;;;;;2.96;41.09;101790.15;104574;1270;61806;-73
2024/03/11 07:51:59;;;;;;;4.40;1.40;;;;;;;3.01;40.90;101793.34;104204;1263;75288;-61
2024/03/11 07:54:27;;;;;;;5.80;1.50;;;;;;;3.07;40.69;101793.70;105012;1265;72677;-63
2024/03/11 07:56:56;;;;;;;6.60;1.50;;;;;;;3.13;40.44;101796.81;104423;1266;73011;-65
2024/03/11 07:59:27;;;;;;;3.90;1.10;;;;;;;3.19;40.19;101801.70;104915;1268;60497;-60
2024/03/11 08:01:55;;;;;;;3.80;1.10;;;;;;;3.24;40.03;101798.80;104420;1264;59778;-62
2024/03/11 08:04:28;;;;;;;4.30;1.40;;;;;;;3.28;39.97;101791.23;104535;1264;71909;-63
2024/03/11 08:06:56;;;;;;;6.70;2.10;;;;;;;3.32;40.16;101788.52;104917;1263;61905;-61
2024/03/11 08:09:24;;;;;;;6.90;1.70;;;;;;;3.39;40.45;101787.46;105153;1265;71546;-54
2024/03/11 08:11:54;;;;;;;6.50;1.80;;;;;;;3.45;40.45;101782.08;105253;1265;60355;-63
2024/03/11 08:14:23;;;;;;;5.70;2.10;;;;;;;3.52;40.06;101789.00;105004;1265;61864;-60
2024/03/11 08:16:51;;;;;;;4.40;1.20;;;;;;;3.60;39.82;101787.05;104518;1269;72157;-63
2024/03/11 08:19:20;;;;;;;5.80;1.60;;;;;;;3.66;39.34;101788.29;104607;1264;61776;-61
2024/03/11 08:21:48;;;;;;;7.00;2.10;;;;;;;3.72;39.17;101788.45;105053;1262;76304;-63
2024/03/11 08:24:16;;;;;;;8.80;3.00;;;;;;;3.79;39.21;101787.55;104365;1263;60540;-59
2024/03/11 08:26:43;;;;;;;16.70;4.50;;;;;;;3.87;39.47;101780.37;105297;1265;60663;-61
2024/03/11 08:29:12;;;;;;;6.90;1.90;;;;;;;3.95;39.39;101777.70;105415;1268;75302;-65
2024/03/11 08:31:40;;;;;;;6.30;2.10;;;;;;;4.02;38.84;101776.80;104480;1268;71166;-61
2024/03/11 08:34:07;;;;;;;6.40;2.80;;;;;;;4.08;38.78;101775.92;104454;1264;74962;-60
2024/03/11 08:36:35;;;;;;;7.00;2.40;;;;;;;4.14;38.82;101775.73;104375;1269;61856;-61
2024/03/11 08:39:03;;;;;;;5.60;1.50;;;;;;;4.20;38.52;101779.02;104697;1263;62206;-60
2024/03/11 08:41:30;;;;;;;5.30;2.10;;;;;;;4.25;38.31;101778.69;104987;1265;74131;-59
2024/03/11 08:43:58;;;;;;;4.70;1.40;;;;;;;4.29;37.90;101776.85;105025;1263;70485;-60
2024/03/11 08:46:26;;;;;;;4.40;1.70;;;;;;;4.33;37.89;101777.77;104553;1265;65849;-64
2024/03/11 08:48:54;;;;;;;5.50;1.70;;;;;;;4.36;37.86;101777.13;104468;1269;60216;-60
2024/03/11 08:51:23;;;;;;;4.30;1.50;;;;;;;4.43;37.80;101779.70;104514;1263;62183;-63
2024/03/11 08:53:51;;;;;;;4.30;1.50;;;;;;;4.50;37.32;101781.73;104619;1262;72773;-60
2024/03/11 08:56:19;;;;;;;4.50;1.60;;;;;;;4.57;36.98;101778.36;104457;1263;61962;-62
2024/03/11 08:58:50;;;;;;;3.20;1.10;;;;;;;4.64;36.75;101779.55;104541;1268;72693;-61
2024/03/11 09:01:19;;;;;;;5.80;1.20;;;;;;;4.72;36.67;101783.13;104916;1270;59768;-64
2024/03/11 09:03:49;;;;;;;4.00;1.20;;;;;;;4.78;36.32;101784.99;105945;1264;60400;-60
2024/03/11 09:06:16;;;;;;;4.30;1.50;;;;;;;4.84;36.22;101788.11;104467;1263;74027;-59
2024/03/11 09:08:44;;;;;;;4.90;1.40;;;;;;;4.89;36.11;101792.99;104301;1263;64049;-57
2024/03/11 09:11:12;;;;;;;4.40;1.00;;;;;;;4.93;36.08;101786.42;104517;1263;75015;-59
2024/03/11 09:13:40;;;;;;;5.20;1.90;;;;;;;4.98;36.10;101787.96;104543;1266;59647;-59
2024/03/11 09:16:08;;;;;;;6.30;2.20;;;;;;;5.07;35.86;101788.38;104412;1270;59643;-63
2024/03/11 09:18:37;;;;;;;5.70;1.40;;;;;;;5.10;35.73;101784.25;104373;1263;65650;-61
2024/03/11 09:21:05;;;;;;;4.20;1.90;;;;;;;5.15;35.51;101782.70;107994;1269;72653;-61
2024/03/11 09:23:33;;;;;;;5.60;2.20;;;;;;;5.22;35.32;101780.19;105401;1271;71732;-62
2024/03/11 09:26:01;;;;;;;3.90;1.50;;;;;;;5.26;35.08;101775.35;104277;1263;59654;-61
2024/03/11 09:28:29;;;;;;;4.40;1.30;;;;;;;5.30;34.91;101774.67;104687;1270;60583;-60
2024/03/11 09:30:57;;;;;;;6.10;2.40;;;;;;;5.35;34.91;101773.14;104365;1262;65111;-62
2024/03/11 09:33:27;;;;;;;5.10;1.20;;;;;;;5.44;34.78;101772.10;108368;1263;72696;-62
2024/03/11 09:35:55;;;;;;;5.80;1.10;;;;;;;5.52;34.81;101770.41;106699;1263;64003;-63
2024/03/11 09:38:23;;;;;;;3.60;1.50;;;;;;;5.62;34.55;101770.07;104899;1263;59701;-66
2024/03/11 09:40:52;;;;;;;6.70;1.90;;;;;;;5.71;34.33;101763.98;105203;1263;61071;-64
2024/03/11 09:43:20;;;;;;;5.20;1.70;;;;;;;5.77;34.35;101756.59;105033;1263;74022;-63
2024/03/11 09:45:47;;;;;;;5.10;2.10;;;;;;;5.84;34.28;101761.59;104482;1272;62536;-64
2024/03/11 09:48:17;;;;;;;4.70;1.40;;;;;;;5.90;34.31;101757.67;104613;1267;74939;-63
2024/03/11 09:50:45;;;;;;;6.60;1.30;;;;;;;5.94;34.06;101752.66;105977;1255;60254;-62
2024/03/11 09:53:18;;;;;;;3.90;0.90;;;;;;;5.97;33.91;101747.17;104903;1256;59645;-62
2024/03/11 09:55:47;;;;;;;4.70;1.20;;;;;;;6.00;33.90;101743.21;105142;1257;66337;-63
2024/03/11 09:58:18;;;;;;;4.60;1.60;;;;;;;6.06;33.98;101736.53;106622;1256;62750;-63
2024/03/11 10:00:55;;;;;;;5.00;1.10;;;;;;;6.13;34.10;101734.16;106384;1256;72596;-62
2024/03/11 10:03:24;;;;;;;5.70;1.70;;;;;;;6.20;33.98;101733.39;105496;1261;60129;-61
2024/03/11 10:05:56;;;;;;;3.60;1.00;;;;;;;6.28;33.87;101731.67;104617;1257;60378;-62
2024/03/11 10:08:26;;;;;;;4.20;1.20;;;;;;;6.34;34.09;101734.74;105299;1259;64411;-67
2024/03/11 10:11:15;;;;;;;3.90;1.20;;;;;;;6.41;33.53;101730.24;105514;1260;72587;-61
2024/03/11 10:13:44;;;;;;;3.50;0.90;;;;;;;6.46;33.47;101734.23;105081;1260;73625;-67
2024/03/11 10:16:17;;;;;;;5.70;1.20;;;;;;;6.50;33.24;101724.48;105041;1259;59741;-68
2024/03/11 10:19:00;;;;;;;4.40;1.20;;;;;;;6.50;32.96;101719.98;105085;1258;59714;-63
2024/03/11 10:21:31;;;;;;;3.90;1.30;;;;;;;6.51;33.16;101724.43;105226;1257;73962;-61
2024/03/11 10:24:00;;;;;;;4.70;1.30;;;;;;;6.56;33.08;101721.45;105026;1259;60304;-62
2024/03/11 10:26:30;;;;;;;3.80;1.40;;;;;;;6.63;33.01;101723.42;105293;1257;74860;-63
2024/03/11 10:28:58;;;;;;;2.60;0.90;;;;;;;6.69;32.55;101722.14;105041;1262;59689;-61
2024/03/11 10:31:33;;;;;;;3.30;1.00;;;;;;;6.73;32.37;101722.11;104800;1258;59706;-61
2024/03/11 10:34:12;;;;;;;4.90;1.80;;;;;;;6.78;32.19;101721.42;105339;1258;66564;-62
2024/03/11 10:36:44;;;;;;;3.00;0.90;;;;;;;6.80;32.16;101716.62;104995;1257;72392;-60
2024/03/11 10:41:51;;;;;;;3.10;0.90;;;;;;;6.90;32.27;101712.52;105100;1254;59878;-61
2024/03/11 10:44:23;;;;;;;5.50;1.20;;;;;;;6.97;32.39;101707.16;105192;1253;59780;-63
2024/03/11 10:46:52;;;;;;;2.50;0.60;;;;;;;7.02;32.13;101704.14;105770;1253;66043;-68
2024/03/11 10:49:21;;;;;;;4.70;1.10;;;;;;;7.06;31.85;101701.67;105642;1260;62369;-63
2024/03/11 10:51:49;;;;;;;3.30;1.20;;;;;;;7.12;31.68;101698.84;105799;1253;63891;-62
2024/03/11 10:54:23;;;;;;;3.60;1.30;;;;;;;7.16;31.71;101696.71;105212;1253;59648;-62
2024/03/11 10:56:52;;;;;;;3.20;1.00;;;;;;;7.22;31.50;101697.67;105143;1253;62634;-61
2024/03/11 10:59:29;;;;;;;3.90;1.30;;;;;;;7.26;31.19;101700.27;105809;1253;74456;-64
2024/03/11 11:01:57;;;;;;;4.90;1.30;;;;;;;7.31;30.97;101696.23;106527;1255;62662;-63
2024/03/11 11:04:29;;;;;;;2.70;1.40;;;;;;;7.35;30.88;101689.59;105793;1256;66407;-60
2024/03/11 11:07:00;;;;;;;6.50;2.80;;;;;;;7.38;30.84;101683.70;105163;1253;59653;-67
2024/03/11 11:09:29;;;;;;;3.90;1.10;;;;;;;7.44;31.02;101687.77;105663;1257;59585;-64
2024/03/11 11:11:57;;;;;;;2.70;0.90;;;;;;;7.54;31.23;101692.89;105090;1253;66780;-62
2024/03/11 11:14:25;;;;;;;4.00;0.90;;;;;;;7.65;30.60;101691.70;105664;1253;64184;-64
2024/03/11 11:16:57;;;;;;;4.00;0.90;;;;;;;7.73;30.52;101690.48;105234;1253;74920;-60
2024/03/11 11:19:32;;;;;;;4.10;1.10;;;;;;;7.75;30.60;101689.83;105870;1258;61148;-61
2024/03/11 11:22:00;;;;;;;5.60;2.30;;;;;;;7.78;30.44;101685.34;106230;1254;60355;-65
2024/03/11 11:24:39;;;;;;;2.50;1.10;;;;;;;7.81;30.18;101682.04;105460;1256;65355;-63
2024/03/11 11:27:13;;;;;;;3.10;0.80;;;;;;;7.86;30.46;101681.80;105365;1253;64434;-64
2024/03/11 11:29:46;;;;;;;6.30;1.60;;;;;;;7.94;30.53;101680.90;104967;1253;62559;-66
2024/03/11 11:32:18;;;;;;;3.60;0.90;;;;;;;8.02;30.19;101678.43;104738;1253;60837;-69
2024/03/11 11:34:55;;;;;;;6.90;2.80;;;;;;;8.08;30.13;101669.57;105143;1253;60492;-63
2024/03/11 11:37:23;;;;;;;4.30;1.40;;;;;;;8.15;29.91;101672.73;104953;1253;77091;-62